sensor_id;sensor_type;location;lat;lon;timestamp;temperature;humidity
4453;DHT22;2239;48.152;11.584;2023-07-29T00:00:44;18.00;99.90
4453;DHT22;2239;48.152;11.584;2023-07-29T00:03:10;17.90;99.90
4453;DHT22;2239;48.152;11.584;2023-07-29T00:05:39;18.00;99.90
4453;DHT22;2239;48.152;11.584;2023-07-29T00:08:05;18.00;99.90
4453;DHT22;2239;48.152;11.584;2023-07-29T00:10:32;17.90;99.90
4453;DHT22;2239;48.152;11.584;2023-07-29T00:12:58;17.90;99.90
4453;DHT22;2239;48.152;11.584;2023-07-29T00:15:23;17.90;99.90
4453;DHT22;2239;48.152;11.584;2023-07-29T00:17:49;18.00;99.90
4453;DHT22;2239;48.152;11.584;2023-07-29T00:20:14;17.90;99.90
4453;DHT22;2239;48.152;11.584;2023-07-29T00:22:40;17.90;99.90
4453;DHT22;2239;48.152;11.584;2023-07-29T00:25:06;17.90;99.90
4453;DHT22;2239;48.152;11.584;2023-07-29T00:27:32;17.90;99.90
4453;DHT22;2239;48.152;11.584;2023-07-29T00:29:57;17.90;99.90
4453;DHT22;2239;48.152;11.584;2023-07-29T00:32:23;17.90;99.90
4453;DHT22;2239;48.152;11.584;2023-07-29T00:34:48;17.90;99.90
4453;DHT22;2239;48.152;11.584;2023-07-29T00:37:14;17.90;99.90
4453;DHT22;2239;48.152;11.584;2023-07-29T00:39:39;17.90;99.90
4453;DHT22;2239;48.152;11.584;2023-07-29T00:42:06;17.90;99.90
4453;DHT22;2239;48.152;11.584;2023-07-29T00:44:31;17.90;99.90
4453;DHT22;2239;48.152;11.584;2023-07-29T00:46:58;17.80;99.90
4453;DHT22;2239;48.152;11.584;2023-07-29T00:49:26;17.80;99.90
4453;DHT22;2239;48.152;11.584;2023-07-29T00:51:51;17.70;99.90
4453;DHT22;2239;48.152;11.584;2023-07-29T00:54:17;17.70;99.90
4453;DHT22;2239;48.152;11.584;2023-07-29T00:56:42;17.60;99.90
4453;DHT22;2239;48.152;11.584;2023-07-29T00:59:08;17.60;99.90
4453;DHT22;2239;48.152;11.584;2023-07-29T01:01:34;17.60;99.90
4453;DHT22;2239;48.152;11.584;2023-07-29T01:04:00;17.60;99.90
4453;DHT22;2239;48.152;11.584;2023-07-29T01:12:08;17.60;99.90
4453;DHT22;2239;48.152;11.584;2023-07-29T01:17:29;17.60;99.90
4453;DHT22;2239;48.152;11.584;2023-07-29T01:20:04;17.50;99.90
4453;DHT22;2239;48.152;11.584;2023-07-29T01:22:34;17.50;99.90
4453;DHT22;2239;48.152;11.584;2023-07-29T01:25:01;17.50;99.90
4453;DHT22;2239;48.152;11.584;2023-07-29T01:27:26;17.50;99.90
4453;DHT22;2239;48.152;11.584;2023-07-29T01:29:53;17.50;99.90
4453;DHT22;2239;48.152;11.584;2023-07-29T01:35:03;17.40;99.90
4453;DHT22;2239;48.152;11.584;2023-07-29T01:37:33;17.40;99.90
4453;DHT22;2239;48.152;11.584;2023-07-29T01:40:00;17.30;99.90
4453;DHT22;2239;48.152;11.584;2023-07-29T01:42:26;17.20;99.90
4453;DHT22;2239;48.152;11.584;2023-07-29T01:44:52;17.30;99.90
4453;DHT22;2239;48.152;11.584;2023-07-29T01:47:17;17.30;99.90
4453;DHT22;2239;48.152;11.584;2023-07-29T01:49:43;17.30;99.90
4453;DHT22;2239;48.152;11.584;2023-07-29T01:52:09;17.30;99.90
4453;DHT22;2239;48.152;11.584;2023-07-29T01:54:34;17.30;99.90
4453;DHT22;2239;48.152;11.584;2023-07-29T01:57:00;17.20;99.90
4453;DHT22;2239;48.152;11.584;2023-07-29T01:59:25;17.20;99.90
4453;DHT22;2239;48.152;11.584;2023-07-29T02:01:51;17.10;99.90
4453;DHT22;2239;48.152;11.584;2023-07-29T02:04:16;17.10;99.90
4453;DHT22;2239;48.152;11.584;2023-07-29T02:06:42;17.20;99.90
4453;DHT22;2239;48.152;11.584;2023-07-29T02:09:07;17.20;99.90
4453;DHT22;2239;48.152;11.584;2023-07-29T02:11:33;17.20;99.90
4453;DHT22;2239;48.152;11.584;2023-07-29T02:13:58;17.10;99.90
4453;DHT22;2239;48.152;11.584;2023-07-29T02:16:24;17.10;99.90
4453;DHT22;2239;48.152;11.584;2023-07-29T02:18:49;17.00;99.90
4453;DHT22;2239;48.152;11.584;2023-07-29T02:21:16;17.10;99.90
4453;DHT22;2239;48.152;11.584;2023-07-29T02:23:42;17.10;99.90
4453;DHT22;2239;48.152;11.584;2023-07-29T02:26:08;17.00;99.90
4453;DHT22;2239;48.152;11.584;2023-07-29T02:28:33;17.00;99.90
4453;DHT22;2239;48.152;11.584;2023-07-29T02:31:21;17.00;99.90
4453;DHT22;2239;48.152;11.584;2023-07-29T02:33:53;17.00;99.90
4453;DHT22;2239;48.152;11.584;2023-07-29T02:36:19;17.00;99.90
4453;DHT22;2239;48.152;11.584;2023-07-29T02:38:44;17.00;99.90
4453;DHT22;2239;48.152;11.584;2023-07-29T02:41:10;17.00;99.90
4453;DHT22;2239;48.152;11.584;2023-07-29T02:43:38;16.90;99.90
4453;DHT22;2239;48.152;11.584;2023-07-29T02:46:04;16.90;99.90
4453;DHT22;2239;48.152;11.584;2023-07-29T02:48:30;16.90;99.90
4453;DHT22;2239;48.152;11.584;2023-07-29T02:50:55;16.90;99.90
4453;DHT22;2239;48.152;11.584;2023-07-29T02:53:22;16.90;99.90
4453;DHT22;2239;48.152;11.584;2023-07-29T02:55:48;16.90;99.90
4453;DHT22;2239;48.152;11.584;2023-07-29T02:58:14;17.00;99.90
4453;DHT22;2239;48.152;11.584;2023-07-29T03:00:39;16.90;99.90
4453;DHT22;2239;48.152;11.584;2023-07-29T03:03:08;16.90;99.90
4453;DHT22;2239;48.152;11.584;2023-07-29T03:05:33;16.80;99.90
4453;DHT22;2239;48.152;11.584;2023-07-29T03:07:59;16.80;99.90
4453;DHT22;2239;48.152;11.584;2023-07-29T03:10:25;16.80;99.90
4453;DHT22;2239;48.152;11.584;2023-07-29T03:12:50;16.70;99.90
4453;DHT22;2239;48.152;11.584;2023-07-29T03:15:16;16.70;99.90
4453;DHT22;2239;48.152;11.584;2023-07-29T03:17:42;16.70;99.90
4453;DHT22;2239;48.152;11.584;2023-07-29T03:20:08;16.70;99.90
4453;DHT22;2239;48.152;11.584;2023-07-29T03:22:33;16.70;99.90
4453;DHT22;2239;48.152;11.584;2023-07-29T03:24:59;16.70;99.90
4453;DHT22;2239;48.152;11.584;2023-07-29T03:27:24;16.70;99.90
4453;DHT22;2239;48.152;11.584;2023-07-29T03:29:50;16.70;99.90
4453;DHT22;2239;48.152;11.584;2023-07-29T03:32:15;16.70;99.90
4453;DHT22;2239;48.152;11.584;2023-07-29T03:34:41;16.70;99.90
4453;DHT22;2239;48.152;11.584;2023-07-29T03:37:06;16.80;99.90
4453;DHT22;2239;48.152;11.584;2023-07-29T03:39:32;16.80;99.90
4453;DHT22;2239;48.152;11.584;2023-07-29T03:41:58;16.80;99.90
4453;DHT22;2239;48.152;11.584;2023-07-29T03:44:24;16.70;99.90
4453;DHT22;2239;48.152;11.584;2023-07-29T03:46:49;16.70;99.90
4453;DHT22;2239;48.152;11.584;2023-07-29T03:49:15;16.70;99.90
4453;DHT22;2239;48.152;11.584;2023-07-29T03:51:40;16.70;99.90
4453;DHT22;2239;48.152;11.584;2023-07-29T03:54:06;16.70;99.90
4453;DHT22;2239;48.152;11.584;2023-07-29T03:56:32;16.70;99.90
4453;DHT22;2239;48.152;11.584;2023-07-29T03:59:03;16.80;99.90
4453;DHT22;2239;48.152;11.584;2023-07-29T04:01:29;16.80;99.90
4453;DHT22;2239;48.152;11.584;2023-07-29T04:03:54;16.80;99.90
4453;DHT22;2239;48.152;11.584;2023-07-29T04:06:20;16.80;99.90
4453;DHT22;2239;48.152;11.584;2023-07-29T04:08:46;16.80;99.90
4453;DHT22;2239;48.152;11.584;2023-07-29T04:11:11;16.90;99.90
4453;DHT22;2239;48.152;11.584;2023-07-29T04:13:37;16.90;99.90
4453;DHT22;2239;48.152;11.584;2023-07-29T04:16:04;16.90;99.90
4453;DHT22;2239;48.152;11.584;2023-07-29T04:18:29;16.80;99.90
4453;DHT22;2239;48.152;11.584;2023-07-29T04:20:55;16.90;99.90
4453;DHT22;2239;48.152;11.584;2023-07-29T04:23:20;16.90;99.90
4453;DHT22;2239;48.152;11.584;2023-07-29T04:25:46;16.80;99.90
4453;DHT22;2239;48.152;11.584;2023-07-29T04:28:11;16.90;99.90
4453;DHT22;2239;48.152;11.584;2023-07-29T04:30:37;16.80;99.90
4453;DHT22;2239;48.152;11.584;2023-07-29T04:33:03;16.80;99.90
4453;DHT22;2239;48.152;11.584;2023-07-29T04:35:28;16.70;99.90
4453;DHT22;2239;48.152;11.584;2023-07-29T04:37:54;16.70;99.90
4453;DHT22;2239;48.152;11.584;2023-07-29T04:40:20;16.70;99.90
4453;DHT22;2239;48.152;11.584;2023-07-29T04:42:45;16.70;99.90
4453;DHT22;2239;48.152;11.584;2023-07-29T04:45:11;16.70;99.90
4453;DHT22;2239;48.152;11.584;2023-07-29T04:47:36;16.70;99.90
4453;DHT22;2239;48.152;11.584;2023-07-29T04:50:02;16.80;99.90
4453;DHT22;2239;48.152;11.584;2023-07-29T04:52:28;16.80;99.90
4453;DHT22;2239;48.152;11.584;2023-07-29T04:54:56;17.00;99.90
4453;DHT22;2239;48.152;11.584;2023-07-29T04:57:22;17.10;99.90
4453;DHT22;2239;48.152;11.584;2023-07-29T04:59:47;17.20;99.90
4453;DHT22;2239;48.152;11.584;2023-07-29T05:02:13;17.40;99.90
4453;DHT22;2239;48.152;11.584;2023-07-29T05:04:38;17.50;99.90
4453;DHT22;2239;48.152;11.584;2023-07-29T05:07:04;17.60;99.90
4453;DHT22;2239;48.152;11.584;2023-07-29T05:09:30;17.80;99.90
4453;DHT22;2239;48.152;11.584;2023-07-29T05:11:55;18.00;99.90
4453;DHT22;2239;48.152;11.584;2023-07-29T05:14:21;18.10;99.90
4453;DHT22;2239;48.152;11.584;2023-07-29T05:16:46;18.10;99.90
4453;DHT22;2239;48.152;11.584;2023-07-29T05:19:13;18.30;99.90
4453;DHT22;2239;48.152;11.584;2023-07-29T05:21:39;18.40;99.90
4453;DHT22;2239;48.152;11.584;2023-07-29T05:24:04;18.50;99.90
4453;DHT22;2239;48.152;11.584;2023-07-29T05:26:30;18.50;99.90
4453;DHT22;2239;48.152;11.584;2023-07-29T05:28:56;18.50;99.90
4453;DHT22;2239;48.152;11.584;2023-07-29T05:31:22;18.50;99.90
4453;DHT22;2239;48.152;11.584;2023-07-29T05:33:47;18.60;99.90
4453;DHT22;2239;48.152;11.584;2023-07-29T05:36:13;18.70;99.90
4453;DHT22;2239;48.152;11.584;2023-07-29T05:38:39;18.70;99.90
4453;DHT22;2239;48.152;11.584;2023-07-29T05:41:04;18.70;99.90
4453;DHT22;2239;48.152;11.584;2023-07-29T05:43:30;18.80;99.90
4453;DHT22;2239;48.152;11.584;2023-07-29T05:45:55;18.80;99.90
4453;DHT22;2239;48.152;11.584;2023-07-29T05:48:21;18.80;99.90
4453;DHT22;2239;48.152;11.584;2023-07-29T05:50:47;18.90;99.90
4453;DHT22;2239;48.152;11.584;2023-07-29T05:53:13;18.90;99.90
4453;DHT22;2239;48.152;11.584;2023-07-29T05:55:39;18.90;99.90
4453;DHT22;2239;48.152;11.584;2023-07-29T05:58:05;18.90;99.90
4453;DHT22;2239;48.152;11.584;2023-07-29T06:00:31;19.00;99.90
4453;DHT22;2239;48.152;11.584;2023-07-29T06:02:56;18.90;99.90
4453;DHT22;2239;48.152;11.584;2023-07-29T06:05:22;18.90;99.90
4453;DHT22;2239;48.152;11.584;2023-07-29T06:07:47;18.90;99.90
4453;DHT22;2239;48.152;11.584;2023-07-29T06:10:40;18.80;99.90
4453;DHT22;2239;48.152;11.584;2023-07-29T06:13:05;18.70;99.90
4453;DHT22;2239;48.152;11.584;2023-07-29T06:15:31;18.60;99.90
4453;DHT22;2239;48.152;11.584;2023-07-29T06:17:56;18.50;99.90
4453;DHT22;2239;48.152;11.584;2023-07-29T06:20:22;18.30;99.90
4453;DHT22;2239;48.152;11.584;2023-07-29T06:22:48;18.20;99.90
4453;DHT22;2239;48.152;11.584;2023-07-29T06:25:13;18.10;99.90
4453;DHT22;2239;48.152;11.584;2023-07-29T06:27:39;18.10;99.90
4453;DHT22;2239;48.152;11.584;2023-07-29T06:30:05;18.20;99.90
4453;DHT22;2239;48.152;11.584;2023-07-29T06:32:31;18.20;99.90
4453;DHT22;2239;48.152;11.584;2023-07-29T06:34:57;18.30;99.90
4453;DHT22;2239;48.152;11.584;2023-07-29T06:37:22;18.30;99.90
4453;DHT22;2239;48.152;11.584;2023-07-29T06:39:48;18.40;99.90
4453;DHT22;2239;48.152;11.584;2023-07-29T06:42:13;18.40;99.90
4453;DHT22;2239;48.152;11.584;2023-07-29T06:44:40;18.40;99.90
4453;DHT22;2239;48.152;11.584;2023-07-29T06:47:05;18.50;99.90
4453;DHT22;2239;48.152;11.584;2023-07-29T06:49:31;18.50;99.90
4453;DHT22;2239;48.152;11.584;2023-07-29T06:51:56;18.50;99.90
4453;DHT22;2239;48.152;11.584;2023-07-29T06:54:25;18.40;99.90
4453;DHT22;2239;48.152;11.584;2023-07-29T06:56:52;18.40;99.90
4453;DHT22;2239;48.152;11.584;2023-07-29T06:59:17;18.30;99.90
4453;DHT22;2239;48.152;11.584;2023-07-29T07:01:43;18.30;99.90
4453;DHT22;2239;48.152;11.584;2023-07-29T07:04:09;18.30;99.90
4453;DHT22;2239;48.152;11.584;2023-07-29T07:06:35;18.30;99.90
4453;DHT22;2239;48.152;11.584;2023-07-29T07:09:00;18.30;99.90
4453;DHT22;2239;48.152;11.584;2023-07-29T07:11:26;18.20;99.90
4453;DHT22;2239;48.152;11.584;2023-07-29T07:13:51;18.20;99.90
4453;DHT22;2239;48.152;11.584;2023-07-29T07:16:17;18.20;99.90
4453;DHT22;2239;48.152;11.584;2023-07-29T07:18:43;18.20;99.90
4453;DHT22;2239;48.152;11.584;2023-07-29T07:21:08;18.20;99.90
4453;DHT22;2239;48.152;11.584;2023-07-29T07:23:34;18.30;99.90
4453;DHT22;2239;48.152;11.584;2023-07-29T07:25:59;18.20;99.90
4453;DHT22;2239;48.152;11.584;2023-07-29T07:28:25;18.30;99.90
4453;DHT22;2239;48.152;11.584;2023-07-29T07:30:51;18.20;99.90
4453;DHT22;2239;48.152;11.584;2023-07-29T07:33:16;18.30;99.90
4453;DHT22;2239;48.152;11.584;2023-07-29T07:35:42;18.30;99.90
4453;DHT22;2239;48.152;11.584;2023-07-29T07:38:08;18.30;99.90
4453;DHT22;2239;48.152;11.584;2023-07-29T07:40:35;18.30;99.90
4453;DHT22;2239;48.152;11.584;2023-07-29T07:43:01;18.30;99.90
4453;DHT22;2239;48.152;11.584;2023-07-29T07:45:27;18.30;99.90
4453;DHT22;2239;48.152;11.584;2023-07-29T07:47:52;18.30;99.90
4453;DHT22;2239;48.152;11.584;2023-07-29T07:50:21;18.40;99.90
4453;DHT22;2239;48.152;11.584;2023-07-29T07:52:46;18.40;99.90
4453;DHT22;2239;48.152;11.584;2023-07-29T07:55:12;18.50;99.90
4453;DHT22;2239;48.152;11.584;2023-07-29T07:57:38;18.60;99.90
4453;DHT22;2239;48.152;11.584;2023-07-29T08:00:03;18.70;99.90
4453;DHT22;2239;48.152;11.584;2023-07-29T08:02:30;18.70;99.90
4453;DHT22;2239;48.152;11.584;2023-07-29T08:04:55;18.80;99.90
4453;DHT22;2239;48.152;11.584;2023-07-29T08:07:21;18.80;99.90
4453;DHT22;2239;48.152;11.584;2023-07-29T08:09:47;18.90;99.90
4453;DHT22;2239;48.152;11.584;2023-07-29T08:12:12;19.00;99.90
4453;DHT22;2239;48.152;11.584;2023-07-29T08:14:38;19.00;99.90
4453;DHT22;2239;48.152;11.584;2023-07-29T08:17:03;19.00;99.90
4453;DHT22;2239;48.152;11.584;2023-07-29T08:19:29;19.10;99.90
4453;DHT22;2239;48.152;11.584;2023-07-29T08:21:55;19.20;99.90
4453;DHT22;2239;48.152;11.584;2023-07-29T08:24:20;19.20;99.90
4453;DHT22;2239;48.152;11.584;2023-07-29T08:26:46;19.30;99.90
4453;DHT22;2239;48.152;11.584;2023-07-29T08:29:11;19.30;99.90
4453;DHT22;2239;48.152;11.584;2023-07-29T08:31:37;19.50;99.90
4453;DHT22;2239;48.152;11.584;2023-07-29T08:34:03;19.50;99.90
4453;DHT22;2239;48.152;11.584;2023-07-29T08:36:29;19.70;99.90
4453;DHT22;2239;48.152;11.584;2023-07-29T08:38:54;19.80;99.90
4453;DHT22;2239;48.152;11.584;2023-07-29T08:41:25;20.00;99.90
4453;DHT22;2239;48.152;11.584;2023-07-29T08:44:11;20.10;99.90
4453;DHT22;2239;48.152;11.584;2023-07-29T08:46:39;20.00;99.90
4453;DHT22;2239;48.152;11.584;2023-07-29T08:49:05;20.00;99.90
4453;DHT22;2239;48.152;11.584;2023-07-29T08:51:31;20.10;99.90
4453;DHT22;2239;48.152;11.584;2023-07-29T08:53:58;20.20;99.90
4453;DHT22;2239;48.152;11.584;2023-07-29T08:56:24;20.30;99.90
4453;DHT22;2239;48.152;11.584;2023-07-29T08:58:51;20.40;99.90
4453;DHT22;2239;48.152;11.584;2023-07-29T09:01:17;20.40;99.90
4453;DHT22;2239;48.152;11.584;2023-07-29T09:03:42;20.50;99.90
4453;DHT22;2239;48.152;11.584;2023-07-29T09:06:08;20.60;99.90
4453;DHT22;2239;48.152;11.584;2023-07-29T09:08:34;20.60;99.90
4453;DHT22;2239;48.152;11.584;2023-07-29T09:11:00;20.80;99.90
4453;DHT22;2239;48.152;11.584;2023-07-29T09:13:26;21.00;99.90
4453;DHT22;2239;48.152;11.584;2023-07-29T09:15:55;21.20;99.90
4453;DHT22;2239;48.152;11.584;2023-07-29T09:18:22;21.40;99.90
4453;DHT22;2239;48.152;11.584;2023-07-29T09:20:49;21.60;99.90
4453;DHT22;2239;48.152;11.584;2023-07-29T09:23:15;21.80;99.90
4453;DHT22;2239;48.152;11.584;2023-07-29T09:25:41;22.10;99.90
4453;DHT22;2239;48.152;11.584;2023-07-29T09:28:10;22.60;99.90
4453;DHT22;2239;48.152;11.584;2023-07-29T09:30:41;23.10;99.90
4453;DHT22;2239;48.152;11.584;2023-07-29T09:33:09;23.50;99.90
4453;DHT22;2239;48.152;11.584;2023-07-29T09:35:35;23.80;99.90
4453;DHT22;2239;48.152;11.584;2023-07-29T09:38:02;24.20;99.90
4453;DHT22;2239;48.152;11.584;2023-07-29T09:40:34;24.30;99.90
4453;DHT22;2239;48.152;11.584;2023-07-29T09:43:00;24.30;99.90
4453;DHT22;2239;48.152;11.584;2023-07-29T09:45:27;24.20;99.90
4453;DHT22;2239;48.152;11.584;2023-07-29T09:47:53;24.20;99.90
4453;DHT22;2239;48.152;11.584;2023-07-29T09:50:26;24.30;99.90
4453;DHT22;2239;48.152;11.584;2023-07-29T09:52:53;24.60;99.90
4453;DHT22;2239;48.152;11.584;2023-07-29T09:55:22;24.80;99.90
4453;DHT22;2239;48.152;11.584;2023-07-29T09:57:59;24.80;99.90
4453;DHT22;2239;48.152;11.584;2023-07-29T10:00:28;24.90;99.90
4453;DHT22;2239;48.152;11.584;2023-07-29T10:02:54;24.90;99.90
4453;DHT22;2239;48.152;11.584;2023-07-29T10:05:22;24.80;99.90
4453;DHT22;2239;48.152;11.584;2023-07-29T10:07:49;25.20;99.90
4453;DHT22;2239;48.152;11.584;2023-07-29T10:10:18;25.70;99.90
4453;DHT22;2239;48.152;11.584;2023-07-29T10:12:45;26.00;99.90
4453;DHT22;2239;48.152;11.584;2023-07-29T10:15:11;26.30;99.90
4453;DHT22;2239;48.152;11.584;2023-07-29T10:17:38;26.40;99.90
4453;DHT22;2239;48.152;11.584;2023-07-29T10:20:08;26.40;99.90
4453;DHT22;2239;48.152;11.584;2023-07-29T10:22:42;26.50;99.90
4453;DHT22;2239;48.152;11.584;2023-07-29T10:25:19;26.50;99.70
4453;DHT22;2239;48.152;11.584;2023-07-29T10:30:19;26.40;99.50
4453;DHT22;2239;48.152;11.584;2023-07-29T10:32:45;26.80;99.30
4453;DHT22;2239;48.152;11.584;2023-07-29T10:35:15;27.20;98.70
4453;DHT22;2239;48.152;11.584;2023-07-29T10:37:41;27.10;98.30
4453;DHT22;2239;48.152;11.584;2023-07-29T10:40:09;27.10;97.40
4453;DHT22;2239;48.152;11.584;2023-07-29T10:42:36;27.10;97.80
4453;DHT22;2239;48.152;11.584;2023-07-29T10:45:22;26.90;97.50
4453;DHT22;2239;48.152;11.584;2023-07-29T10:47:48;27.30;97.60
4453;DHT22;2239;48.152;11.584;2023-07-29T10:50:21;27.30;97.80
4453;DHT22;2239;48.152;11.584;2023-07-29T10:52:51;27.40;97.80
4453;DHT22;2239;48.152;11.584;2023-07-29T10:55:34;27.70;97.70
4453;DHT22;2239;48.152;11.584;2023-07-29T10:58:15;27.90;96.10
4453;DHT22;2239;48.152;11.584;2023-07-29T11:00:45;27.80;95.90
4453;DHT22;2239;48.152;11.584;2023-07-29T11:03:12;27.90;95.70
4453;DHT22;2239;48.152;11.584;2023-07-29T11:05:53;27.90;95.80
4453;DHT22;2239;48.152;11.584;2023-07-29T11:08:27;27.80;95.80
4453;DHT22;2239;48.152;11.584;2023-07-29T11:11:07;27.80;95.70
4453;DHT22;2239;48.152;11.584;2023-07-29T11:13:36;27.90;95.90
4453;DHT22;2239;48.152;11.584;2023-07-29T11:16:03;27.90;95.80
4453;DHT22;2239;48.152;11.584;2023-07-29T11:18:31;28.00;95.90
4453;DHT22;2239;48.152;11.584;2023-07-29T11:20:57;27.80;94.90
4453;DHT22;2239;48.152;11.584;2023-07-29T11:23:31;27.00;94.60
4453;DHT22;2239;48.152;11.584;2023-07-29T11:25:57;26.80;94.50
4453;DHT22;2239;48.152;11.584;2023-07-29T11:28:24;27.00;94.20
4453;DHT22;2239;48.152;11.584;2023-07-29T11:30:50;26.80;93.80
4453;DHT22;2239;48.152;11.584;2023-07-29T11:33:25;26.50;94.00
4453;DHT22;2239;48.152;11.584;2023-07-29T11:35:51;26.10;94.80
4453;DHT22;2239;48.152;11.584;2023-07-29T11:38:18;25.80;95.10
4453;DHT22;2239;48.152;11.584;2023-07-29T11:40:54;26.00;95.50
4453;DHT22;2239;48.152;11.584;2023-07-29T11:43:19;26.20;94.80
4453;DHT22;2239;48.152;11.584;2023-07-29T11:45:45;26.40;95.00
4453;DHT22;2239;48.152;11.584;2023-07-29T11:48:11;26.60;94.10
4453;DHT22;2239;48.152;11.584;2023-07-29T11:50:37;26.90;93.70
4453;DHT22;2239;48.152;11.584;2023-07-29T11:53:02;27.20;93.30
4453;DHT22;2239;48.152;11.584;2023-07-29T11:55:28;27.30;93.30
4453;DHT22;2239;48.152;11.584;2023-07-29T11:57:54;27.40;93.30
4453;DHT22;2239;48.152;11.584;2023-07-29T12:00:20;27.60;93.40
4453;DHT22;2239;48.152;11.584;2023-07-29T12:02:47;27.80;92.90
4453;DHT22;2239;48.152;11.584;2023-07-29T12:05:14;28.00;92.90
4453;DHT22;2239;48.152;11.584;2023-07-29T12:07:42;28.30;92.50
4453;DHT22;2239;48.152;11.584;2023-07-29T12:10:08;28.40;91.80
4453;DHT22;2239;48.152;11.584;2023-07-29T12:12:45;28.60;91.00
4453;DHT22;2239;48.152;11.584;2023-07-29T12:15:11;28.80;91.20
4453;DHT22;2239;48.152;11.584;2023-07-29T12:17:43;28.80;90.90
4453;DHT22;2239;48.152;11.584;2023-07-29T12:20:11;28.90;91.00
4453;DHT22;2239;48.152;11.584;2023-07-29T12:22:37;29.20;90.70
4453;DHT22;2239;48.152;11.584;2023-07-29T12:25:03;29.20;90.60
4453;DHT22;2239;48.152;11.584;2023-07-29T12:27:30;29.20;90.60
4453;DHT22;2239;48.152;11.584;2023-07-29T12:29:55;29.40;90.30
4453;DHT22;2239;48.152;11.584;2023-07-29T12:32:25;29.30;90.00
4453;DHT22;2239;48.152;11.584;2023-07-29T12:34:53;29.00;90.40
4453;DHT22;2239;48.152;11.584;2023-07-29T12:37:19;28.80;91.10
4453;DHT22;2239;48.152;11.584;2023-07-29T12:39:44;28.50;91.40
4453;DHT22;2239;48.152;11.584;2023-07-29T12:42:10;28.30;91.80
4453;DHT22;2239;48.152;11.584;2023-07-29T12:44:37;28.00;92.40
4453;DHT22;2239;48.152;11.584;2023-07-29T12:47:04;27.60;93.00
4453;DHT22;2239;48.152;11.584;2023-07-29T12:49:30;27.20;93.80
4453;DHT22;2239;48.152;11.584;2023-07-29T12:51:57;26.80;94.80
4453;DHT22;2239;48.152;11.584;2023-07-29T12:54:23;26.20;97.20
4453;DHT22;2239;48.152;11.584;2023-07-29T12:56:48;25.90;99.70
4453;DHT22;2239;48.152;11.584;2023-07-29T12:59:14;25.20;99.90
4453;DHT22;2239;48.152;11.584;2023-07-29T13:01:40;24.20;99.90
4453;DHT22;2239;48.152;11.584;2023-07-29T13:04:06;23.40;99.90
4453;DHT22;2239;48.152;11.584;2023-07-29T13:06:31;22.90;99.90
4453;DHT22;2239;48.152;11.584;2023-07-29T13:08:57;22.50;99.90
4453;DHT22;2239;48.152;11.584;2023-07-29T13:11:22;22.40;99.90
4453;DHT22;2239;48.152;11.584;2023-07-29T13:13:48;22.40;99.90
4453;DHT22;2239;48.152;11.584;2023-07-29T13:16:14;22.40;99.90
4453;DHT22;2239;48.152;11.584;2023-07-29T13:18:39;22.30;99.90
4453;DHT22;2239;48.152;11.584;2023-07-29T13:21:06;22.20;99.90
4453;DHT22;2239;48.152;11.584;2023-07-29T13:23:31;22.20;99.90
4453;DHT22;2239;48.152;11.584;2023-07-29T13:25:57;22.10;99.90
4453;DHT22;2239;48.152;11.584;2023-07-29T13:28:23;22.10;99.90
4453;DHT22;2239;48.152;11.584;2023-07-29T13:30:49;22.20;99.90
4453;DHT22;2239;48.152;11.584;2023-07-29T13:33:14;22.40;99.90
4453;DHT22;2239;48.152;11.584;2023-07-29T13:35:40;22.50;99.90
4453;DHT22;2239;48.152;11.584;2023-07-29T13:38:06;22.60;99.90
4453;DHT22;2239;48.152;11.584;2023-07-29T13:40:31;22.60;99.90
4453;DHT22;2239;48.152;11.584;2023-07-29T13:42:57;22.60;99.90
4453;DHT22;2239;48.152;11.584;2023-07-29T13:45:23;22.70;99.90
4453;DHT22;2239;48.152;11.584;2023-07-29T13:47:49;22.80;99.90
4453;DHT22;2239;48.152;11.584;2023-07-29T13:50:16;22.80;99.90
4453;DHT22;2239;48.152;11.584;2023-07-29T13:52:41;22.80;99.90
4453;DHT22;2239;48.152;11.584;2023-07-29T13:55:07;22.80;99.90
4453;DHT22;2239;48.152;11.584;2023-07-29T13:57:33;22.90;99.90
4453;DHT22;2239;48.152;11.584;2023-07-29T13:59:59;23.00;99.90
4453;DHT22;2239;48.152;11.584;2023-07-29T14:02:24;23.10;99.90
4453;DHT22;2239;48.152;11.584;2023-07-29T14:04:52;23.10;99.90
4453;DHT22;2239;48.152;11.584;2023-07-29T14:07:17;23.00;99.90
4453;DHT22;2239;48.152;11.584;2023-07-29T14:09:43;23.00;99.90
4453;DHT22;2239;48.152;11.584;2023-07-29T14:12:08;23.00;99.90
4453;DHT22;2239;48.152;11.584;2023-07-29T14:14:38;22.90;99.90
4453;DHT22;2239;48.152;11.584;2023-07-29T14:17:03;22.80;99.90
4453;DHT22;2239;48.152;11.584;2023-07-29T14:19:29;22.90;99.90
4453;DHT22;2239;48.152;11.584;2023-07-29T14:21:55;22.90;99.90
4453;DHT22;2239;48.152;11.584;2023-07-29T14:24:20;22.70;99.90
4453;DHT22;2239;48.152;11.584;2023-07-29T14:26:47;22.70;99.90
4453;DHT22;2239;48.152;11.584;2023-07-29T14:29:12;22.60;99.90
4453;DHT22;2239;48.152;11.584;2023-07-29T14:31:38;22.60;99.90
4453;DHT22;2239;48.152;11.584;2023-07-29T14:34:04;22.60;99.90
4453;DHT22;2239;48.152;11.584;2023-07-29T14:36:29;22.50;99.90
4453;DHT22;2239;48.152;11.584;2023-07-29T14:38:55;22.50;99.90
4453;DHT22;2239;48.152;11.584;2023-07-29T14:41:20;22.40;99.90
4453;DHT22;2239;48.152;11.584;2023-07-29T14:43:46;22.40;99.90
4453;DHT22;2239;48.152;11.584;2023-07-29T14:46:11;22.20;99.90
4453;DHT22;2239;48.152;11.584;2023-07-29T14:48:37;22.10;99.90
4453;DHT22;2239;48.152;11.584;2023-07-29T14:51:03;22.10;99.90
4453;DHT22;2239;48.152;11.584;2023-07-29T14:53:28;22.00;99.90
4453;DHT22;2239;48.152;11.584;2023-07-29T14:55:54;21.90;99.90
4453;DHT22;2239;48.152;11.584;2023-07-29T14:58:19;21.90;99.90
4453;DHT22;2239;48.152;11.584;2023-07-29T15:00:45;21.90;99.90
4453;DHT22;2239;48.152;11.584;2023-07-29T15:03:11;21.80;99.90
4453;DHT22;2239;48.152;11.584;2023-07-29T15:05:36;21.80;99.90
4453;DHT22;2239;48.152;11.584;2023-07-29T15:08:02;21.70;99.90
4453;DHT22;2239;48.152;11.584;2023-07-29T15:10:27;21.60;99.90
4453;DHT22;2239;48.152;11.584;2023-07-29T15:12:53;21.50;99.90
4453;DHT22;2239;48.152;11.584;2023-07-29T15:15:18;21.50;99.90
4453;DHT22;2239;48.152;11.584;2023-07-29T15:17:44;21.40;99.90
4453;DHT22;2239;48.152;11.584;2023-07-29T15:20:10;21.50;99.90
4453;DHT22;2239;48.152;11.584;2023-07-29T15:22:36;21.60;99.90
4453;DHT22;2239;48.152;11.584;2023-07-29T15:25:02;21.60;99.90
4453;DHT22;2239;48.152;11.584;2023-07-29T15:27:28;21.70;99.90
4453;DHT22;2239;48.152;11.584;2023-07-29T15:29:54;21.80;99.90
4453;DHT22;2239;48.152;11.584;2023-07-29T15:32:20;21.90;99.90
4453;DHT22;2239;48.152;11.584;2023-07-29T15:34:46;22.00;99.90
4453;DHT22;2239;48.152;11.584;2023-07-29T15:37:12;22.00;99.90
4453;DHT22;2239;48.152;11.584;2023-07-29T15:39:38;22.10;99.90
4453;DHT22;2239;48.152;11.584;2023-07-29T15:42:04;22.10;99.90
4453;DHT22;2239;48.152;11.584;2023-07-29T15:44:29;22.10;99.90
4453;DHT22;2239;48.152;11.584;2023-07-29T15:46:55;22.00;99.90
4453;DHT22;2239;48.152;11.584;2023-07-29T15:49:23;22.10;99.90
4453;DHT22;2239;48.152;11.584;2023-07-29T15:51:49;22.10;99.90
4453;DHT22;2239;48.152;11.584;2023-07-29T15:54:15;22.10;99.90